In Rescue
 
Open Full Screen Window  High Contrast Mode
Wind Gusting 00 knots
06
May 25, 2022 10:39 PM EDT
Present Weather: Light Rain
Weather Information
Wind Direction
  140 °
Wind Speed
  06 kt (7 mph)
Wind Gust
  00 kt (0 mph)
Altimeter
29.90 in
Visibility
10 SM
Temperature
18° C
64° F
Dewpoint
17° C
63° F
Humidity
94%
1hr Rain Fall
00.01 in.
24hr Rain Fall
00.12 in.
Sky Condition
Broken @ 12,000 ft
Scattered @ 10,000 ft
VFR

METAR KFPK 260239Z AUTO 14006KT 10SM -RA SCT100 BKN120 18/17 A2990 RMK AO2 T01810167 P0001

FAA Disclaimer: The data displayed is for advisory purposes only and is not to be used for flight planning or operations.